sensor_id;sensor_type;location;lat;lon;timestamp;noise_LAeq;noise_LA_min;noise_LA_max;noise_LA01;noise_LA95
66463;Laerm;56827;52.178;4.500;2022-11-15T00:00:08;30.55;29.48;32.29;;
66463;Laerm;56827;52.178;4.500;2022-11-15T00:00:19;30.73;29.14;33.89;;
66463;Laerm;56827;52.178;4.500;2022-11-15T00:00:30;30.57;29.08;35.22;;
66463;Laerm;56827;52.178;4.500;2022-11-15T00:00:40;30.66;28.70;32.35;;
66463;Laerm;56827;52.178;4.500;2022-11-15T00:00:50;30.73;29.12;33.16;;
66463;Laerm;56827;52.178;4.500;2022-11-15T00:01:01;32.20;30.11;35.46;;
66463;Laerm;56827;52.178;4.500;2022-11-15T00:01:14;30.81;29.48;34.28;;
66463;Laerm;56827;52.178;4.500;2022-11-15T00:01:25;30.83;29.09;37.26;;
66463;Laerm;56827;52.178;4.500;2022-11-15T00:01:35;30.12;28.60;34.40;;
66463;Laerm;56827;52.178;4.500;2022-11-15T00:01:47;30.59;28.97;33.87;;
66463;Laerm;56827;52.178;4.500;2022-11-15T00:01:57;34.03;30.44;39.08;;
66463;Laerm;56827;52.178;4.500;2022-11-15T00:02:07;31.99;29.83;34.60;;
66463;Laerm;56827;52.178;4.500;2022-11-15T00:02:17;30.50;28.88;36.14;;
66463;Laerm;56827;52.178;4.500;2022-11-15T00:02:27;31.56;29.52;34.34;;
66463;Laerm;56827;52.178;4.500;2022-11-15T00:02:38;33.83;28.85;46.55;;
66463;Laerm;56827;52.178;4.500;2022-11-15T00:02:48;32.90;29.14;35.10;;
66463;Laerm;56827;52.178;4.500;2022-11-15T00:02:58;33.26;30.88;35.75;;
66463;Laerm;56827;52.178;4.500;2022-11-15T00:03:09;30.94;29.09;34.09;;
66463;Laerm;56827;52.178;4.500;2022-11-15T00:03:23;31.35;29.17;42.63;;
66463;Laerm;56827;52.178;4.500;2022-11-15T00:03:33;32.89;31.19;35.72;;
66463;Laerm;56827;52.178;4.500;2022-11-15T00:03:44;31.87;29.81;35.74;;
66463;Laerm;56827;52.178;4.500;2022-11-15T00:03:54;30.32;29.02;33.06;;
66463;Laerm;56827;52.178;4.500;2022-11-15T00:04:04;31.58;28.55;43.82;;
66463;Laerm;56827;52.178;4.500;2022-11-15T00:04:14;30.19;29.05;32.78;;
66463;Laerm;56827;52.178;4.500;2022-11-15T00:04:25;30.87;29.40;32.78;;
66463;Laerm;56827;52.178;4.500;2022-11-15T00:04:35;33.23;31.31;36.27;;
66463;Laerm;56827;52.178;4.500;2022-11-15T00:04:45;33.79;31.10;36.35;;
66463;Laerm;56827;52.178;4.500;2022-11-15T00:04:55;35.74;30.86;40.42;;
66463;Laerm;56827;52.178;4.500;2022-11-15T00:05:05;38.00;35.42;40.08;;
66463;Laerm;56827;52.178;4.500;2022-11-15T00:05:16;34.35;31.69;36.93;;
66463;Laerm;56827;52.178;4.500;2022-11-15T00:05:26;31.73;30.46;34.20;;
66463;Laerm;56827;52.178;4.500;2022-11-15T00:05:36;33.51;31.48;35.72;;
66463;Laerm;56827;52.178;4.500;2022-11-15T00:05:47;31.80;30.51;33.35;;
66463;Laerm;56827;52.178;4.500;2022-11-15T00:06:01;32.15;30.43;36.23;;
66463;Laerm;56827;52.178;4.500;2022-11-15T00:06:11;31.09;30.16;34.47;;
66463;Laerm;56827;52.178;4.500;2022-11-15T00:06:21;31.71;29.84;33.79;;
66463;Laerm;56827;52.178;4.500;2022-11-15T00:06:32;32.92;31.21;35.08;;
66463;Laerm;56827;52.178;4.500;2022-11-15T00:06:42;32.38;30.51;34.43;;
66463;Laerm;56827;52.178;4.500;2022-11-15T00:06:52;32.78;31.37;34.14;;
66463;Laerm;56827;52.178;4.500;2022-11-15T00:07:03;31.80;30.72;34.23;;
66463;Laerm;56827;52.178;4.500;2022-11-15T00:07:13;32.09;30.56;34.27;;
66463;Laerm;56827;52.178;4.500;2022-11-15T00:07:23;31.05;29.54;32.96;;
66463;Laerm;56827;52.178;4.500;2022-11-15T00:07:33;31.38;29.64;33.45;;
66463;Laerm;56827;52.178;4.500;2022-11-15T00:07:43;33.72;30.66;36.05;;
66463;Laerm;56827;52.178;4.500;2022-11-15T00:07:54;35.49;32.45;42.80;;
66463;Laerm;56827;52.178;4.500;2022-11-15T00:08:04;33.68;31.68;36.26;;
66463;Laerm;56827;52.178;4.500;2022-11-15T00:08:14;32.52;30.86;38.55;;
66463;Laerm;56827;52.178;4.500;2022-11-15T00:08:24;39.94;34.00;42.37;;
66463;Laerm;56827;52.178;4.500;2022-11-15T00:08:35;36.86;32.79;40.73;;
66463;Laerm;56827;52.178;4.500;2022-11-15T00:08:45;34.09;32.18;36.54;;
66463;Laerm;56827;52.178;4.500;2022-11-15T00:08:57;34.86;32.47;37.40;;
66463;Laerm;56827;52.178;4.500;2022-11-15T00:09:07;38.25;36.46;40.07;;
66463;Laerm;56827;52.178;4.500;2022-11-15T00:09:17;37.70;35.51;39.76;;
66463;Laerm;56827;52.178;4.500;2022-11-15T00:09:28;36.76;34.93;38.37;;
66463;Laerm;56827;52.178;4.500;2022-11-15T00:09:38;36.24;33.70;39.04;;
66463;Laerm;56827;52.178;4.500;2022-11-15T00:09:48;34.50;33.44;37.22;;
66463;Laerm;56827;52.178;4.500;2022-11-15T00:09:58;34.38;32.07;48.27;;
66463;Laerm;56827;52.178;4.500;2022-11-15T00:10:08;32.99;30.87;36.32;;
66463;Laerm;56827;52.178;4.500;2022-11-15T00:10:19;33.19;30.82;36.73;;
66463;Laerm;56827;52.178;4.500;2022-11-15T00:10:29;34.17;31.25;37.09;;
66463;Laerm;56827;52.178;4.500;2022-11-15T00:10:39;32.32;30.79;35.46;;
66463;Laerm;56827;52.178;4.500;2022-11-15T00:10:56;31.98;30.58;33.96;;
66463;Laerm;56827;52.178;4.500;2022-11-15T00:11:08;34.31;31.88;37.61;;
66463;Laerm;56827;52.178;4.500;2022-11-15T00:11:19;35.39;32.46;38.49;;
66463;Laerm;56827;52.178;4.500;2022-11-15T00:11:30;36.25;32.33;40.47;;
66463;Laerm;56827;52.178;4.500;2022-11-15T00:11:40;33.16;31.57;36.12;;
66463;Laerm;56827;52.178;4.500;2022-11-15T00:11:51;33.82;31.97;36.99;;
66463;Laerm;56827;52.178;4.500;2022-11-15T00:12:01;33.83;32.12;46.54;;
66463;Laerm;56827;52.178;4.500;2022-11-15T00:12:11;32.06;30.96;33.44;;
66463;Laerm;56827;52.178;4.500;2022-11-15T00:12:21;34.07;30.31;37.34;;
66463;Laerm;56827;52.178;4.500;2022-11-15T00:12:32;33.95;31.56;37.26;;
66463;Laerm;56827;52.178;4.500;2022-11-15T00:12:42;32.28;29.99;35.40;;
66463;Laerm;56827;52.178;4.500;2022-11-15T00:12:52;35.11;31.52;37.82;;
66463;Laerm;56827;52.178;4.500;2022-11-15T00:13:09;33.91;31.03;37.24;;
66463;Laerm;56827;52.178;4.500;2022-11-15T00:13:19;32.22;30.38;35.52;;
66463;Laerm;56827;52.178;4.500;2022-11-15T00:13:29;33.06;30.95;37.47;;
66463;Laerm;56827;52.178;4.500;2022-11-15T00:13:40;36.68;33.98;38.76;;
66463;Laerm;56827;52.178;4.500;2022-11-15T00:13:50;34.91;31.78;37.61;;
66463;Laerm;56827;52.178;4.500;2022-11-15T00:14:00;32.94;31.35;35.29;;
66463;Laerm;56827;52.178;4.500;2022-11-15T00:14:12;35.39;31.20;37.65;;
66463;Laerm;56827;52.178;4.500;2022-11-15T00:14:22;37.00;34.59;38.96;;
66463;Laerm;56827;52.178;4.500;2022-11-15T00:14:32;36.17;34.04;38.87;;
66463;Laerm;56827;52.178;4.500;2022-11-15T00:14:43;35.15;30.28;41.84;;
66463;Laerm;56827;52.178;4.500;2022-11-15T00:14:53;39.68;37.64;42.25;;
66463;Laerm;56827;52.178;4.500;2022-11-15T00:15:03;35.07;32.44;38.64;;
66463;Laerm;56827;52.178;4.500;2022-11-15T00:15:14;33.73;31.77;37.63;;
66463;Laerm;56827;52.178;4.500;2022-11-15T00:15:24;35.95;33.39;38.06;;
66463;Laerm;56827;52.178;4.500;2022-11-15T00:15:35;34.06;29.79;37.46;;
66463;Laerm;56827;52.178;4.500;2022-11-15T00:15:46;30.50;29.05;32.59;;
66463;Laerm;56827;52.178;4.500;2022-11-15T00:15:57;33.03;30.68;35.25;;
66463;Laerm;56827;52.178;4.500;2022-11-15T00:16:08;33.73;31.49;36.60;;
66463;Laerm;56827;52.178;4.500;2022-11-15T00:16:18;35.24;33.90;37.79;;
66463;Laerm;56827;52.178;4.500;2022-11-15T00:16:29;33.35;30.59;36.42;;
66463;Laerm;56827;52.178;4.500;2022-11-15T00:16:39;31.76;30.10;34.31;;
66463;Laerm;56827;52.178;4.500;2022-11-15T00:16:49;32.11;30.15;34.60;;
66463;Laerm;56827;52.178;4.500;2022-11-15T00:16:59;33.17;30.27;35.51;;
66463;Laerm;56827;52.178;4.500;2022-11-15T00:17:09;36.98;34.08;43.02;;
66463;Laerm;56827;52.178;4.500;2022-11-15T00:17:20;38.50;35.27;40.85;;
66463;Laerm;56827;52.178;4.500;2022-11-15T00:17:30;38.71;34.56;42.14;;
66463;Laerm;56827;52.178;4.500;2022-11-15T00:17:40;41.21;36.20;43.72;;
66463;Laerm;56827;52.178;4.500;2022-11-15T00:17:51;37.26;35.19;39.34;;
66463;Laerm;56827;52.178;4.500;2022-11-15T00:18:01;35.72;33.95;38.17;;
66463;Laerm;56827;52.178;4.500;2022-11-15T00:18:12;33.94;32.10;35.69;;
66463;Laerm;56827;52.178;4.500;2022-11-15T00:18:22;32.86;30.90;35.78;;
66463;Laerm;56827;52.178;4.500;2022-11-15T00:18:32;31.67;30.40;33.28;;
66463;Laerm;56827;52.178;4.500;2022-11-15T00:18:43;31.48;29.90;34.57;;
66463;Laerm;56827;52.178;4.500;2022-11-15T00:18:53;34.93;32.41;38.08;;
66463;Laerm;56827;52.178;4.500;2022-11-15T00:19:03;36.17;31.53;39.84;;
66463;Laerm;56827;52.178;4.500;2022-11-15T00:19:13;32.52;30.89;34.86;;
66463;Laerm;56827;52.178;4.500;2022-11-15T00:19:24;33.31;31.71;35.42;;
66463;Laerm;56827;52.178;4.500;2022-11-15T00:19:34;32.56;31.23;35.82;;
66463;Laerm;56827;52.178;4.500;2022-11-15T00:19:44;32.73;30.40;35.73;;
66463;Laerm;56827;52.178;4.500;2022-11-15T00:19:55;33.74;30.24;36.01;;
66463;Laerm;56827;52.178;4.500;2022-11-15T00:20:05;32.67;30.89;36.69;;
66463;Laerm;56827;52.178;4.500;2022-11-15T00:20:16;35.60;31.80;40.68;;
66463;Laerm;56827;52.178;4.500;2022-11-15T00:20:27;34.56;30.37;38.41;;
66463;Laerm;56827;52.178;4.500;2022-11-15T00:20:37;33.40;30.35;37.24;;
66463;Laerm;56827;52.178;4.500;2022-11-15T00:20:47;37.23;34.45;40.30;;
66463;Laerm;56827;52.178;4.500;2022-11-15T00:21:03;34.46;32.59;38.07;;
66463;Laerm;56827;52.178;4.500;2022-11-15T00:21:14;32.37;29.87;35.60;;
66463;Laerm;56827;52.178;4.500;2022-11-15T00:21:24;30.75;28.77;32.96;;
66463;Laerm;56827;52.178;4.500;2022-11-15T00:21:34;29.83;28.80;32.54;;
66463;Laerm;56827;52.178;4.500;2022-11-15T00:21:44;30.00;28.78;34.52;;
66463;Laerm;56827;52.178;4.500;2022-11-15T00:21:55;30.43;29.05;32.92;;
66463;Laerm;56827;52.178;4.500;2022-11-15T00:22:05;31.30;29.35;34.66;;
66463;Laerm;56827;52.178;4.500;2022-11-15T00:22:15;30.41;29.01;33.06;;
66463;Laerm;56827;52.178;4.500;2022-11-15T00:22:31;30.05;28.96;32.92;;
66463;Laerm;56827;52.178;4.500;2022-11-15T00:22:41;31.38;29.32;34.87;;
66463;Laerm;56827;52.178;4.500;2022-11-15T00:22:52;30.41;29.20;37.31;;
66463;Laerm;56827;52.178;4.500;2022-11-15T00:23:05;30.57;29.36;35.56;;
66463;Laerm;56827;52.178;4.500;2022-11-15T00:23:15;30.63;29.30;34.60;;
66463;Laerm;56827;52.178;4.500;2022-11-15T00:23:26;30.40;28.94;33.66;;
66463;Laerm;56827;52.178;4.500;2022-11-15T00:23:36;30.92;29.38;34.95;;
66463;Laerm;56827;52.178;4.500;2022-11-15T00:23:47;32.41;31.01;35.67;;
66463;Laerm;56827;52.178;4.500;2022-11-15T00:23:58;30.66;28.95;32.91;;
66463;Laerm;56827;52.178;4.500;2022-11-15T00:24:08;30.92;29.08;33.45;;
66463;Laerm;56827;52.178;4.500;2022-11-15T00:24:18;30.03;28.83;32.48;;
66463;Laerm;56827;52.178;4.500;2022-11-15T00:24:28;30.86;29.29;33.74;;
66463;Laerm;56827;52.178;4.500;2022-11-15T00:24:39;30.41;29.11;33.79;;
66463;Laerm;56827;52.178;4.500;2022-11-15T00:24:49;31.40;30.07;32.73;;
66463;Laerm;56827;52.178;4.500;2022-11-15T00:24:59;31.60;30.22;38.20;;
66463;Laerm;56827;52.178;4.500;2022-11-15T00:25:09;31.86;30.35;34.24;;
66463;Laerm;56827;52.178;4.500;2022-11-15T00:25:20;32.88;30.95;35.23;;
66463;Laerm;56827;52.178;4.500;2022-11-15T00:25:30;33.96;31.45;36.46;;
66463;Laerm;56827;52.178;4.500;2022-11-15T00:25:40;33.15;31.15;34.70;;
66463;Laerm;56827;52.178;4.500;2022-11-15T00:25:57;33.01;31.23;35.29;;
66463;Laerm;56827;52.178;4.500;2022-11-15T00:26:10;33.38;30.65;36.06;;
66463;Laerm;56827;52.178;4.500;2022-11-15T00:26:21;33.75;31.92;36.69;;
66463;Laerm;56827;52.178;4.500;2022-11-15T00:26:31;32.97;31.79;34.95;;
66463;Laerm;56827;52.178;4.500;2022-11-15T00:26:41;34.18;31.67;36.23;;
66463;Laerm;56827;52.178;4.500;2022-11-15T00:26:51;32.84;31.13;34.57;;
66463;Laerm;56827;52.178;4.500;2022-11-15T00:27:01;31.17;29.56;35.06;;
66463;Laerm;56827;52.178;4.500;2022-11-15T00:27:12;30.74;29.30;33.33;;
66463;Laerm;56827;52.178;4.500;2022-11-15T00:27:22;32.30;29.42;35.62;;
66463;Laerm;56827;52.178;4.500;2022-11-15T00:27:32;31.63;30.35;34.15;;
66463;Laerm;56827;52.178;4.500;2022-11-15T00:27:42;31.99;30.07;34.21;;
66463;Laerm;56827;52.178;4.500;2022-11-15T00:27:56;31.56;29.71;34.16;;
66463;Laerm;56827;52.178;4.500;2022-11-15T00:28:06;32.49;31.30;33.73;;
66463;Laerm;56827;52.178;4.500;2022-11-15T00:28:16;32.62;30.59;35.48;;
66463;Laerm;56827;52.178;4.500;2022-11-15T00:28:27;31.71;30.15;35.74;;
66463;Laerm;56827;52.178;4.500;2022-11-15T00:28:37;30.93;29.21;34.77;;
66463;Laerm;56827;52.178;4.500;2022-11-15T00:28:47;31.89;29.89;34.84;;
66463;Laerm;56827;52.178;4.500;2022-11-15T00:28:58;32.43;30.77;33.81;;
66463;Laerm;56827;52.178;4.500;2022-11-15T00:29:08;32.73;31.08;35.91;;
66463;Laerm;56827;52.178;4.500;2022-11-15T00:29:18;34.42;31.85;39.42;;
66463;Laerm;56827;52.178;4.500;2022-11-15T00:29:28;39.24;33.97;42.45;;
66463;Laerm;56827;52.178;4.500;2022-11-15T00:29:38;33.62;32.03;35.58;;
66463;Laerm;56827;52.178;4.500;2022-11-15T00:29:53;31.94;30.43;35.36;;
66463;Laerm;56827;52.178;4.500;2022-11-15T00:30:03;31.76;30.38;36.16;;
66463;Laerm;56827;52.178;4.500;2022-11-15T00:30:14;33.87;31.05;36.27;;
66463;Laerm;56827;52.178;4.500;2022-11-15T00:30:24;35.10;32.83;37.01;;
66463;Laerm;56827;52.178;4.500;2022-11-15T00:30:34;33.10;31.42;36.82;;
66463;Laerm;56827;52.178;4.500;2022-11-15T00:30:44;31.69;30.67;34.77;;
66463;Laerm;56827;52.178;4.500;2022-11-15T00:31:01;31.99;30.02;39.70;;
66463;Laerm;56827;52.178;4.500;2022-11-15T00:31:12;31.03;29.67;35.43;;
66463;Laerm;56827;52.178;4.500;2022-11-15T00:31:23;32.25;30.75;34.66;;
66463;Laerm;56827;52.178;4.500;2022-11-15T00:31:33;31.53;30.55;32.91;;
66463;Laerm;56827;52.178;4.500;2022-11-15T00:31:43;33.45;30.71;36.61;;
66463;Laerm;56827;52.178;4.500;2022-11-15T00:31:53;31.73;30.27;34.97;;
66463;Laerm;56827;52.178;4.500;2022-11-15T00:32:04;36.29;31.71;42.73;;
66463;Laerm;56827;52.178;4.500;2022-11-15T00:32:14;42.55;37.97;46.42;;
66463;Laerm;56827;52.178;4.500;2022-11-15T00:32:24;38.69;36.98;41.21;;
66463;Laerm;56827;52.178;4.500;2022-11-15T00:32:35;41.99;38.65;44.52;;
66463;Laerm;56827;52.178;4.500;2022-11-15T00:32:45;37.25;34.11;42.31;;
66463;Laerm;56827;52.178;4.500;2022-11-15T00:32:55;36.03;33.11;39.03;;
66463;Laerm;56827;52.178;4.500;2022-11-15T00:33:05;39.20;35.59;41.52;;
66463;Laerm;56827;52.178;4.500;2022-11-15T00:33:16;39.85;36.69;44.98;;
66463;Laerm;56827;52.178;4.500;2022-11-15T00:33:26;41.62;35.92;46.44;;
66463;Laerm;56827;52.178;4.500;2022-11-15T00:33:36;35.47;33.65;39.29;;
66463;Laerm;56827;52.178;4.500;2022-11-15T00:33:47;35.17;33.68;38.04;;
66463;Laerm;56827;52.178;4.500;2022-11-15T00:33:57;33.88;31.72;36.84;;
66463;Laerm;56827;52.178;4.500;2022-11-15T00:34:08;33.78;32.55;36.52;;
66463;Laerm;56827;52.178;4.500;2022-11-15T00:34:19;35.31;32.94;37.26;;
66463;Laerm;56827;52.178;4.500;2022-11-15T00:34:29;37.57;36.27;38.68;;
66463;Laerm;56827;52.178;4.500;2022-11-15T00:34:39;36.77;34.92;39.35;;
66463;Laerm;56827;52.178;4.500;2022-11-15T00:34:49;40.71;34.48;44.05;;
66463;Laerm;56827;52.178;4.500;2022-11-15T00:35:00;41.49;38.17;44.43;;
66463;Laerm;56827;52.178;4.500;2022-11-15T00:35:10;38.11;34.84;41.73;;
66463;Laerm;56827;52.178;4.500;2022-11-15T00:35:20;39.75;37.57;41.39;;
66463;Laerm;56827;52.178;4.500;2022-11-15T00:35:31;43.41;38.02;46.73;;
66463;Laerm;56827;52.178;4.500;2022-11-15T00:35:43;46.35;42.35;49.93;;
66463;Laerm;56827;52.178;4.500;2022-11-15T00:35:53;39.46;36.05;43.15;;
66463;Laerm;56827;52.178;4.500;2022-11-15T00:36:04;36.45;33.87;39.96;;
66463;Laerm;56827;52.178;4.500;2022-11-15T00:36:15;33.18;31.00;37.36;;
66463;Laerm;56827;52.178;4.500;2022-11-15T00:36:25;34.30;31.42;38.12;;
66463;Laerm;56827;52.178;4.500;2022-11-15T00:36:35;37.84;34.69;41.18;;
66463;Laerm;56827;52.178;4.500;2022-11-15T00:36:46;41.99;33.68;49.47;;
66463;Laerm;56827;52.178;4.500;2022-11-15T00:36:56;43.00;37.73;47.30;;
66463;Laerm;56827;52.178;4.500;2022-11-15T00:37:06;36.08;33.96;44.07;;
66463;Laerm;56827;52.178;4.500;2022-11-15T00:37:16;35.46;32.74;39.39;;
66463;Laerm;56827;52.178;4.500;2022-11-15T00:37:27;38.25;33.64;39.91;;
66463;Laerm;56827;52.178;4.500;2022-11-15T00:37:37;34.68;32.90;37.71;;
66463;Laerm;56827;52.178;4.500;2022-11-15T00:37:47;35.48;31.80;39.40;;
66463;Laerm;56827;52.178;4.500;2022-11-15T00:37:57;33.77;32.15;36.67;;
66463;Laerm;56827;52.178;4.500;2022-11-15T00:38:08;37.04;33.19;44.02;;
66463;Laerm;56827;52.178;4.500;2022-11-15T00:38:18;38.72;34.57;51.64;;
66463;Laerm;56827;52.178;4.500;2022-11-15T00:38:35;45.19;36.33;54.03;;
66463;Laerm;56827;52.178;4.500;2022-11-15T00:38:45;39.54;33.88;48.05;;
66463;Laerm;56827;52.178;4.500;2022-11-15T00:38:56;36.05;33.73;40.67;;
66463;Laerm;56827;52.178;4.500;2022-11-15T00:39:06;35.03;32.18;41.63;;
66463;Laerm;56827;52.178;4.500;2022-11-15T00:39:16;40.44;36.86;43.27;;
66463;Laerm;56827;52.178;4.500;2022-11-15T00:39:26;40.13;34.92;42.98;;
66463;Laerm;56827;52.178;4.500;2022-11-15T00:39:36;35.77;33.11;37.91;;
66463;Laerm;56827;52.178;4.500;2022-11-15T00:39:47;36.66;34.09;40.03;;
66463;Laerm;56827;52.178;4.500;2022-11-15T00:39:57;39.42;34.57;50.74;;
66463;Laerm;56827;52.178;4.500;2022-11-15T00:40:07;36.07;32.22;39.83;;
66463;Laerm;56827;52.178;4.500;2022-11-15T00:40:18;38.74;33.86;42.38;;
66463;Laerm;56827;52.178;4.500;2022-11-15T00:40:28;35.94;33.52;39.02;;
66463;Laerm;56827;52.178;4.500;2022-11-15T00:40:39;36.71;34.73;40.09;;
66463;Laerm;56827;52.178;4.500;2022-11-15T00:40:49;34.03;31.93;36.44;;
66463;Laerm;56827;52.178;4.500;2022-11-15T00:41:00;35.87;32.52;39.44;;
66463;Laerm;56827;52.178;4.500;2022-11-15T00:41:10;35.16;31.73;39.59;;
66463;Laerm;56827;52.178;4.500;2022-11-15T00:41:20;38.32;32.93;41.53;;
66463;Laerm;56827;52.178;4.500;2022-11-15T00:41:31;33.66;31.78;35.16;;
66463;Laerm;56827;52.178;4.500;2022-11-15T00:41:41;32.41;30.81;36.52;;
66463;Laerm;56827;52.178;4.500;2022-11-15T00:41:51;31.80;30.07;34.03;;
66463;Laerm;56827;52.178;4.500;2022-11-15T00:42:01;31.02;29.32;37.01;;
66463;Laerm;56827;52.178;4.500;2022-11-15T00:42:12;32.13;29.41;35.10;;
66463;Laerm;56827;52.178;4.500;2022-11-15T00:42:22;36.53;32.08;39.67;;
66463;Laerm;56827;52.178;4.500;2022-11-15T00:42:32;36.12;33.46;40.48;;
66463;Laerm;56827;52.178;4.500;2022-11-15T00:42:42;37.04;34.64;39.25;;
66463;Laerm;56827;52.178;4.500;2022-11-15T00:42:52;33.78;31.74;35.84;;
66463;Laerm;56827;52.178;4.500;2022-11-15T00:43:03;37.89;32.60;40.67;;
66463;Laerm;56827;52.178;4.500;2022-11-15T00:43:13;33.36;31.91;39.67;;
66463;Laerm;56827;52.178;4.500;2022-11-15T00:43:23;32.99;31.41;36.71;;
66463;Laerm;56827;52.178;4.500;2022-11-15T00:43:33;32.83;30.24;36.52;;
66463;Laerm;56827;52.178;4.500;2022-11-15T00:43:44;34.47;31.35;40.67;;
66463;Laerm;56827;52.178;4.500;2022-11-15T00:43:55;38.19;31.75;42.54;;
66463;Laerm;56827;52.178;4.500;2022-11-15T00:44:05;36.39;33.64;41.70;;
66463;Laerm;56827;52.178;4.500;2022-11-15T00:44:15;39.38;34.62;49.37;;
66463;Laerm;56827;52.178;4.500;2022-11-15T00:44:25;39.14;34.10;41.97;;
66463;Laerm;56827;52.178;4.500;2022-11-15T00:44:35;36.75;33.36;40.81;;
66463;Laerm;56827;52.178;4.500;2022-11-15T00:44:46;38.63;35.76;41.55;;
66463;Laerm;56827;52.178;4.500;2022-11-15T00:44:56;37.47;35.66;39.32;;
66463;Laerm;56827;52.178;4.500;2022-11-15T00:45:07;34.25;32.06;37.18;;
66463;Laerm;56827;52.178;4.500;2022-11-15T00:45:17;33.39;31.08;37.50;;
66463;Laerm;56827;52.178;4.500;2022-11-15T00:45:27;31.47;30.20;33.59;;
66463;Laerm;56827;52.178;4.500;2022-11-15T00:45:37;32.27;30.53;35.47;;
66463;Laerm;56827;52.178;4.500;2022-11-15T00:45:48;35.68;32.34;38.68;;
66463;Laerm;56827;52.178;4.500;2022-11-15T00:45:58;35.85;34.10;38.59;;
66463;Laerm;56827;52.178;4.500;2022-11-15T00:46:08;33.89;31.98;36.96;;
66463;Laerm;56827;52.178;4.500;2022-11-15T00:46:19;32.09;30.41;36.82;;
66463;Laerm;56827;52.178;4.500;2022-11-15T00:46:29;31.94;30.44;36.89;;
66463;Laerm;56827;52.178;4.500;2022-11-15T00:46:40;31.54;29.98;33.86;;
66463;Laerm;56827;52.178;4.500;2022-11-15T00:46:50;31.59;29.74;34.36;;
66463;Laerm;56827;52.178;4.500;2022-11-15T00:47:00;32.93;30.40;35.78;;
66463;Laerm;56827;52.178;4.500;2022-11-15T00:47:10;33.41;31.77;35.95;;
66463;Laerm;56827;52.178;4.500;2022-11-15T00:47:20;37.06;32.25;40.46;;
66463;Laerm;56827;52.178;4.500;2022-11-15T00:47:31;34.29;32.59;39.17;;
66463;Laerm;56827;52.178;4.500;2022-11-15T00:47:43;36.52;32.99;39.89;;
66463;Laerm;56827;52.178;4.500;2022-11-15T00:47:53;35.36;29.52;40.59;;
66463;Laerm;56827;52.178;4.500;2022-11-15T00:48:04;30.83;29.40;34.69;;
66463;Laerm;56827;52.178;4.500;2022-11-15T00:48:14;33.95;30.11;36.63;;
66463;Laerm;56827;52.178;4.500;2022-11-15T00:48:24;32.56;30.23;36.60;;
66463;Laerm;56827;52.178;4.500;2022-11-15T00:48:35;33.03;29.99;35.32;;
66463;Laerm;56827;52.178;4.500;2022-11-15T00:48:45;31.79;29.42;36.40;;
66463;Laerm;56827;52.178;4.500;2022-11-15T00:48:55;32.97;29.87;36.88;;
66463;Laerm;56827;52.178;4.500;2022-11-15T00:49:06;34.50;32.39;38.21;;
66463;Laerm;56827;52.178;4.500;2022-11-15T00:49:16;37.47;34.08;41.02;;
66463;Laerm;56827;52.178;4.500;2022-11-15T00:49:26;37.12;34.09;39.83;;
66463;Laerm;56827;52.178;4.500;2022-11-15T00:49:36;31.83;29.21;36.46;;
66463;Laerm;56827;52.178;4.500;2022-11-15T00:49:47;30.28;29.10;34.86;;
66463;Laerm;56827;52.178;4.500;2022-11-15T00:49:57;30.20;29.16;32.43;;
66463;Laerm;56827;52.178;4.500;2022-11-15T00:50:07;30.11;28.78;37.60;;
66463;Laerm;56827;52.178;4.500;2022-11-15T00:50:18;30.61;29.31;33.19;;
66463;Laerm;56827;52.178;4.500;2022-11-15T00:50:28;30.24;28.99;33.28;;
66463;Laerm;56827;52.178;4.500;2022-11-15T00:50:38;33.48;29.62;36.63;;
66463;Laerm;56827;52.178;4.500;2022-11-15T00:50:49;36.25;34.29;38.34;;
66463;Laerm;56827;52.178;4.500;2022-11-15T00:50:59;36.54;32.41;39.82;;
66463;Laerm;56827;52.178;4.500;2022-11-15T00:51:10;35.16;33.53;37.80;;
66463;Laerm;56827;52.178;4.500;2022-11-15T00:51:20;32.86;31.17;35.64;;
66463;Laerm;56827;52.178;4.500;2022-11-15T00:51:30;31.83;30.21;36.37;;
66463;Laerm;56827;52.178;4.500;2022-11-15T00:51:40;33.13;30.80;35.78;;
66463;Laerm;56827;52.178;4.500;2022-11-15T00:51:51;31.53;29.94;37.03;;
66463;Laerm;56827;52.178;4.500;2022-11-15T00:52:01;30.49;28.70;37.48;;
66463;Laerm;56827;52.178;4.500;2022-11-15T00:52:11;30.83;29.15;37.14;;
66463;Laerm;56827;52.178;4.500;2022-11-15T00:52:21;31.42;29.58;33.42;;
66463;Laerm;56827;52.178;4.500;2022-11-15T00:52:31;30.66;29.44;36.19;;
66463;Laerm;56827;52.178;4.500;2022-11-15T00:52:42;31.43;29.38;35.29;;
66463;Laerm;56827;52.178;4.500;2022-11-15T00:52:55;32.28;29.52;35.45;;
66463;Laerm;56827;52.178;4.500;2022-11-15T00:53:05;35.61;29.96;38.50;;
66463;Laerm;56827;52.178;4.500;2022-11-15T00:53:16;39.03;34.82;42.47;;
66463;Laerm;56827;52.178;4.500;2022-11-15T00:53:26;37.53;31.95;41.71;;
66463;Laerm;56827;52.178;4.500;2022-11-15T00:53:37;32.50;30.92;37.45;;
66463;Laerm;56827;52.178;4.500;2022-11-15T00:53:47;31.74;29.74;34.03;;
66463;Laerm;56827;52.178;4.500;2022-11-15T00:53:57;30.96;29.65;33.51;;
66463;Laerm;56827;52.178;4.500;2022-11-15T00:54:07;33.47;31.22;36.09;;
66463;Laerm;56827;52.178;4.500;2022-11-15T00:54:18;33.24;30.60;35.88;;
66463;Laerm;56827;52.178;4.500;2022-11-15T00:54:28;30.96;29.74;32.66;;
66463;Laerm;56827;52.178;4.500;2022-11-15T00:54:38;30.52;28.95;32.46;;
66463;Laerm;56827;52.178;4.500;2022-11-15T00:54:48;31.95;29.75;35.44;;
66463;Laerm;56827;52.178;4.500;2022-11-15T00:54:58;32.60;30.72;35.70;;
66463;Laerm;56827;52.178;4.500;2022-11-15T00:55:15;31.52;30.34;33.11;;
66463;Laerm;56827;52.178;4.500;2022-11-15T00:55:26;30.97;29.13;35.27;;
66463;Laerm;56827;52.178;4.500;2022-11-15T00:55:36;30.21;28.63;33.45;;
66463;Laerm;56827;52.178;4.500;2022-11-15T00:55:46;30.61;29.19;34.26;;
66463;Laerm;56827;52.178;4.500;2022-11-15T00:55:56;30.94;29.34;36.07;;
66463;Laerm;56827;52.178;4.500;2022-11-15T00:56:06;30.81;28.62;35.67;;
66463;Laerm;56827;52.178;4.500;2022-11-15T00:56:17;33.61;30.28;36.87;;
66463;Laerm;56827;52.178;4.500;2022-11-15T00:56:27;37.23;34.78;45.44;;
66463;Laerm;56827;52.178;4.500;2022-11-15T00:56:37;34.72;32.75;38.14;;
66463;Laerm;56827;52.178;4.500;2022-11-15T00:56:47;34.52;32.89;35.94;;
66463;Laerm;56827;52.178;4.500;2022-11-15T00:56:58;37.68;34.61;40.79;;
66463;Laerm;56827;52.178;4.500;2022-11-15T00:57:08;34.76;32.43;38.42;;
66463;Laerm;56827;52.178;4.500;2022-11-15T00:57:18;34.54;31.58;38.87;;
66463;Laerm;56827;52.178;4.500;2022-11-15T00:57:28;41.13;35.38;44.69;;
66463;Laerm;56827;52.178;4.500;2022-11-15T00:57:38;40.55;38.54;42.71;;
66463;Laerm;56827;52.178;4.500;2022-11-15T00:57:49;36.55;31.91;39.85;;
66463;Laerm;56827;52.178;4.500;2022-11-15T00:57:59;32.10;30.45;33.80;;
66463;Laerm;56827;52.178;4.500;2022-11-15T00:58:09;31.65;30.14;35.04;;
66463;Laerm;56827;52.178;4.500;2022-11-15T00:58:19;33.32;29.98;36.88;;
66463;Laerm;56827;52.178;4.500;2022-11-15T00:58:30;34.47;31.19;46.72;;
66463;Laerm;56827;52.178;4.500;2022-11-15T00:58:40;32.64;30.57;34.99;;
66463;Laerm;56827;52.178;4.500;2022-11-15T00:58:50;31.56;30.23;33.41;;
66463;Laerm;56827;52.178;4.500;2022-11-15T00:59:00;35.81;30.24;41.26;;
66463;Laerm;56827;52.178;4.500;2022-11-15T00:59:10;39.47;36.91;41.29;;